Aviation Digital Data Service (ADDS)

Output produced by METARs form (2153 UTC 24 February 2018)
found at http://aviationweather.gov/adds/metars/
 
KBOS 242121Z 2421/2524 33007KT P6SM BKN100 
     FM250600 04010G20KT P6SM SCT150 
     FM251100 08011KT 5SM -RAPL BR SCT010 OVC040 
     FM251400 10011G21KT 1SM -RAPL BR OVC008 
     FM251700 11013G25KT 1/2SM -RA FG OVC008 
     FM252000 07008KT 6SM BR VCSH OVC010